Time;durP1;ratioP1;P1;durP2;ratioP2;P2;SDS_P1;SDS_P2;PMS_P1;PMS_P2;Temp;Humidity;BMP_temperature;BMP_pressure;BME280_temperature;BME280_humidity;BME280_pressure;Samples;Min_cycle;Max_cycle;Signal;HPM_P1;HPM_P2
2023/06/15 00:00:30;;;;;;;8.93;5.73;;;;;;;18.24;50.27;156049.84;4983879;28;20453;-79
2023/06/15 00:02:57;;;;;;;6.77;6.07;;;;;;;18.20;50.13;156040.69;5006866;28;20836;-79
2023/06/15 00:05:25;;;;;;;7.27;5.67;;;;;;;18.27;50.00;156057.59;5003640;28;20541;-79
2023/06/15 00:07:52;;;;;;;6.50;5.90;;;;;;;18.23;50.27;156048.53;5001522;28;20560;-79
2023/06/15 00:10:19;;;;;;;6.50;5.90;;;;;;;18.22;50.22;156045.91;4989467;28;20820;-79
2023/06/15 00:12:45;;;;;;;6.90;6.30;;;;;;;18.21;50.35;156043.28;5007006;28;22636;-79
2023/06/15 00:15:12;;;;;;;7.20;6.50;;;;;;;18.20;50.48;156040.69;5005594;28;20452;-79
2023/06/15 00:17:41;;;;;;;6.70;6.07;;;;;;;18.18;50.31;156035.50;5004686;28;20457;-79
2023/06/15 00:20:09;;;;;;;6.03;5.53;;;;;;;18.18;50.48;156034.19;4990664;28;20488;-79
2023/06/15 00:22:40;;;;;;;7.10;6.50;;;;;;;18.11;50.66;156017.25;5008498;28;20467;-78
2023/06/15 00:25:07;;;;;;;7.23;6.53;;;;;;;18.10;50.79;156014.66;4993565;28;20828;-79
2023/06/15 00:27:34;;;;;;;6.70;6.10;;;;;;;18.04;50.98;155997.72;5003965;28;20456;-78
2023/06/15 00:30:01;;;;;;;6.70;6.10;;;;;;;18.00;51.28;155988.59;4989504;28;20460;-79
2023/06/15 00:32:29;;;;;;;7.37;5.90;;;;;;;17.99;51.37;155984.69;4972186;28;20576;-79
2023/06/15 00:34:56;;;;;;;6.70;6.10;;;;;;;17.87;51.60;155953.47;5007536;28;20461;-79
2023/06/15 00:37:22;;;;;;;7.20;6.60;;;;;;;17.92;51.60;155967.78;4993251;28;20992;-79
2023/06/15 00:39:50;;;;;;;8.10;6.00;;;;;;;17.93;51.60;155970.38;5000522;28;20510;-79
2023/06/15 00:42:17;;;;;;;7.30;6.60;;;;;;;17.92;51.83;155967.78;5005515;28;20866;-78
2023/06/15 00:44:43;;;;;;;7.10;6.50;;;;;;;17.89;51.85;155958.66;5013044;28;20469;-79
2023/06/15 00:47:10;;;;;;;7.03;6.40;;;;;;;17.81;52.24;155939.16;4988746;28;20463;-79
2023/06/15 00:49:37;;;;;;;9.20;6.30;;;;;;;17.85;52.24;155948.22;4990085;28;21029;-79
2023/06/15 00:52:04;;;;;;;7.67;6.83;;;;;;;17.85;52.39;155949.53;5006396;28;20460;-79
2023/06/15 00:54:33;;;;;;;7.03;6.43;;;;;;;17.80;52.31;155935.22;4995074;28;20547;-79
2023/06/15 00:57:01;;;;;;;8.57;6.50;;;;;;;17.76;52.41;155924.81;5005971;28;20465;-79
2023/06/15 00:59:29;;;;;;;6.60;6.00;;;;;;;17.69;53.00;155907.88;5006113;28;21081;-79
2023/06/15 01:01:55;;;;;;;7.47;6.87;;;;;;;17.65;52.84;155897.47;5006107;28;20518;-79
2023/06/15 01:04:24;;;;;;;9.63;6.47;;;;;;;17.58;53.00;155880.53;5005960;28;20481;-79
2023/06/15 01:06:52;;;;;;;7.10;6.40;;;;;;;17.59;53.26;155881.84;5005940;28;20464;-79
2023/06/15 01:09:21;;;;;;;7.40;6.70;;;;;;;17.54;53.31;155868.84;5006096;28;21323;-79
2023/06/15 01:11:50;;;;;;;7.40;6.47;;;;;;;17.47;53.44;155851.84;5006019;28;20488;-79
2023/06/15 01:14:18;;;;;;;7.87;7.10;;;;;;;17.44;53.77;155842.75;4981393;28;20551;-79
2023/06/15 01:16:52;;;;;;;8.90;6.00;;;;;;;17.42;53.93;155837.56;4989967;28;20499;-78
2023/06/15 01:19:29;;;;;;;6.50;6.00;;;;;;;17.40;54.01;155833.63;4996343;28;21127;-79
2023/06/15 01:21:58;;;;;;;8.33;6.70;;;;;;;17.36;54.29;155821.94;4972571;28;20475;-79
2023/06/15 01:24:31;;;;;;;9.20;6.67;;;;;;;17.29;54.31;155805.00;4972870;28;20618;-79
2023/06/15 01:27:04;;;;;;;6.00;5.50;;;;;;;17.23;54.59;155789.41;4970624;28;20460;-79
2023/06/15 01:29:32;;;;;;;7.47;6.30;;;;;;;17.22;54.64;155785.47;4995715;28;20969;-79
2023/06/15 01:31:59;;;;;;;7.23;6.50;;;;;;;17.20;54.79;155780.28;5003999;28;20465;-79
2023/06/15 01:34:26;;;;;;;6.90;6.30;;;;;;;17.12;55.38;155759.47;4992576;28;20553;-79
2023/06/15 01:36:52;;;;;;;10.30;7.90;;;;;;;17.16;55.16;155769.84;4988404;28;20460;-79
2023/06/15 01:39:19;;;;;;;7.10;6.50;;;;;;;17.17;55.24;155772.47;5004779;28;20465;-79
2023/06/15 01:41:46;;;;;;;8.60;7.40;;;;;;;17.13;55.57;155763.34;4999781;28;20468;-78
2023/06/15 01:44:14;;;;;;;7.70;7.00;;;;;;;17.04;55.83;155741.25;5002955;28;20469;-79
2023/06/15 01:46:41;;;;;;;7.47;6.80;;;;;;;17.01;56.01;155732.13;5005646;28;20456;-78
2023/06/15 01:49:07;;;;;;;6.13;5.53;;;;;;;16.95;56.07;155716.50;4988617;28;20461;-79
2023/06/15 01:51:34;;;;;;;8.97;6.53;;;;;;;16.87;55.96;155697.00;4995936;28;20530;-79
2023/06/15 01:54:02;;;;;;;6.97;6.37;;;;;;;16.87;55.98;155697.00;5006291;28;20563;-80
2023/06/15 01:56:28;;;;;;;7.20;6.23;;;;;;;16.84;56.27;155689.19;4988894;28;20511;-79
2023/06/15 01:58:55;;;;;;;7.30;6.60;;;;;;;16.84;56.16;155689.19;4988284;28;20557;-79
2023/06/15 02:01:23;;;;;;;8.13;7.43;;;;;;;16.81;56.55;155681.38;4995774;28;20472;-79
2023/06/15 02:03:53;;;;;;;8.53;7.20;;;;;;;16.75;56.94;155665.78;5008684;28;20556;-80
2023/06/15 02:06:19;;;;;;;8.07;7.37;;;;;;;16.73;57.26;155659.28;4987162;28;20481;-79
2023/06/15 02:08:46;;;;;;;6.97;6.37;;;;;;;16.70;57.19;155652.78;4979286;28;20837;-79
2023/06/15 02:11:15;;;;;;;7.63;6.93;;;;;;;16.75;56.73;155665.78;5004528;28;21115;-79
2023/06/15 02:13:42;;;;;;;7.17;6.57;;;;;;;16.70;56.99;155652.78;5009447;28;20548;-79
2023/06/15 02:16:09;;;;;;;7.30;6.70;;;;;;;16.68;57.23;155646.28;4988675;28;20797;-80
2023/06/15 02:18:37;;;;;;;7.63;6.93;;;;;;;16.68;57.20;155646.28;5002987;28;20512;-79
2023/06/15 02:21:04;;;;;;;7.20;6.70;;;;;;;16.67;57.23;155643.66;4996447;28;20496;-79
2023/06/15 02:23:32;;;;;;;10.00;8.00;;;;;;;16.57;57.73;155618.97;4988372;28;20838;-79
2023/06/15 02:25:59;;;;;;;7.67;7.00;;;;;;;16.59;57.59;155622.84;5003447;28;20488;-79
2023/06/15 02:28:25;;;;;;;8.57;7.67;;;;;;;16.56;57.89;155616.34;4990110;28;20460;-79
2023/06/15 02:30:52;;;;;;;6.97;6.37;;;;;;;16.54;57.75;155611.16;5015640;28;20861;-79
2023/06/15 02:33:19;;;;;;;7.70;7.00;;;;;;;16.55;57.43;155613.72;5005985;28;20482;-79
2023/06/15 02:35:48;;;;;;;7.10;6.40;;;;;;;16.48;57.83;155594.16;5016249;28;21356;-79
2023/06/15 02:38:16;;;;;;;7.87;7.07;;;;;;;16.42;58.06;155581.16;4983982;28;20531;-79
2023/06/15 02:40:42;;;;;;;7.20;6.20;;;;;;;16.38;57.62;155569.47;4999751;28;21502;-79
2023/06/15 02:43:09;;;;;;;10.47;6.83;;;;;;;16.38;57.84;155569.47;4995840;28;20826;-79
2023/06/15 02:45:36;;;;;;;7.97;5.60;;;;;;;16.33;57.71;155556.47;4992898;28;20476;-79
2023/06/15 02:48:03;;;;;;;7.00;6.50;;;;;;;16.28;57.99;155544.75;4991273;28;20485;-79
2023/06/15 02:50:30;;;;;;;7.90;7.20;;;;;;;16.41;58.35;155577.28;4976056;28;20488;-79
2023/06/15 02:53:14;;;;;;;7.27;6.63;;;;;;;16.42;58.31;155581.16;4995621;28;20484;-79
2023/06/15 02:55:41;;;;;;;7.77;7.00;;;;;;;16.47;58.01;155592.88;5005194;28;20960;-79
2023/06/15 02:58:08;;;;;;;7.00;6.40;;;;;;;16.36;58.48;155565.56;5004730;28;20540;-79
2023/06/15 03:01:04;;;;;;;7.90;7.10;;;;;;;16.24;58.63;155533.06;4987729;28;20464;-79
2023/06/15 03:03:43;;;;;;;8.27;7.37;;;;;;;16.22;58.71;155527.84;4970018;28;20453;-79
2023/06/15 03:06:10;;;;;;;7.33;6.00;;;;;;;16.22;58.83;155527.84;4993931;28;20884;-79
2023/06/15 03:08:42;;;;;;;7.60;6.90;;;;;;;16.20;59.04;155522.66;4969014;28;21158;-79
2023/06/15 03:11:17;;;;;;;7.17;6.57;;;;;;;16.17;58.75;155514.88;4989996;28;20456;-79
2023/06/15 03:13:44;;;;;;;7.13;6.53;;;;;;;16.11;59.17;155500.56;4984178;28;20468;-79
2023/06/15 03:16:15;;;;;;;7.97;6.90;;;;;;;16.08;59.54;155492.75;4985845;28;20492;-79
2023/06/15 03:18:43;;;;;;;8.87;7.03;;;;;;;16.07;59.81;155488.88;4985969;28;20466;-79
2023/06/15 03:21:09;;;;;;;8.33;6.80;;;;;;;16.08;59.65;155491.44;4991581;28;20876;-79
2023/06/15 03:23:37;;;;;;;7.20;6.57;;;;;;;16.07;59.97;155488.88;4986952;28;20461;-79
2023/06/15 03:26:07;;;;;;;7.20;6.60;;;;;;;16.15;59.61;155509.66;4970606;28;20485;-79
2023/06/15 03:28:38;;;;;;;7.50;6.80;;;;;;;16.18;59.75;155518.75;4995875;28;20980;-79
2023/06/15 03:31:07;;;;;;;7.30;6.60;;;;;;;16.17;59.85;155514.88;5006697;28;20477;-79
2023/06/15 03:33:33;;;;;;;7.57;6.80;;;;;;;16.16;60.05;155512.25;4987911;28;20457;-79
2023/06/15 03:36:01;;;;;;;7.67;6.80;;;;;;;16.15;60.06;155509.66;4996509;28;20449;-79
2023/06/15 03:38:28;;;;;;;7.97;7.37;;;;;;;16.23;59.66;155531.75;4975634;28;20496;-79
2023/06/15 03:40:55;;;;;;;8.43;7.63;;;;;;;16.18;59.86;155517.44;4987389;28;20465;-79
2023/06/15 03:43:23;;;;;;;7.63;6.83;;;;;;;16.11;59.77;155500.56;4986919;28;20814;-79
2023/06/15 03:45:51;;;;;;;8.10;7.17;;;;;;;16.10;60.12;155497.94;4986189;28;20484;-79
2023/06/15 03:48:17;;;;;;;7.93;7.13;;;;;;;16.07;59.79;155490.13;4989337;28;20624;-79
2023/06/15 03:50:44;;;;;;;7.60;6.90;;;;;;;16.12;60.06;155501.88;4989399;28;20489;-79
2023/06/15 03:53:12;;;;;;;7.20;6.50;;;;;;;16.10;59.41;155496.63;5003151;28;20483;-79
2023/06/15 03:55:39;;;;;;;7.90;7.20;;;;;;;16.10;59.92;155496.63;4996725;28;20473;-78
2023/06/15 03:58:09;;;;;;;7.73;7.03;;;;;;;16.10;60.48;155497.94;5003035;28;20600;-82
2023/06/15 04:00:37;;;;;;;8.10;7.37;;;;;;;16.14;60.39;155507.06;5001537;28;20581;-78
2023/06/15 04:03:05;;;;;;;8.33;7.63;;;;;;;16.26;60.51;155538.25;5002580;28;20453;-78
2023/06/15 04:05:31;;;;;;;8.03;7.23;;;;;;;16.43;60.33;155582.47;4985473;28;20486;-78
2023/06/15 04:07:59;;;;;;;7.60;6.80;;;;;;;16.59;60.19;155622.84;5003541;28;20467;-78
2023/06/15 04:10:26;;;;;;;8.10;7.30;;;;;;;16.68;59.56;155647.53;4986148;28;20546;-78
2023/06/15 04:12:52;;;;;;;8.43;7.63;;;;;;;16.79;59.82;155676.19;4992250;28;20472;-78
2023/06/15 04:15:19;;;;;;;7.77;7.17;;;;;;;16.89;59.08;155700.94;4970575;28;20454;-78
2023/06/15 04:17:49;;;;;;;8.20;7.40;;;;;;;16.96;58.85;155720.44;4986825;28;20528;-78
2023/06/15 04:20:16;;;;;;;9.53;7.70;;;;;;;17.09;58.95;155751.63;4981606;28;20462;-78
2023/06/15 04:22:43;;;;;;;8.47;7.67;;;;;;;17.28;57.79;155802.41;4990218;28;20556;-78
2023/06/15 04:25:10;;;;;;;8.13;7.43;;;;;;;17.39;57.29;155829.75;4993423;28;20484;-78
2023/06/15 04:27:39;;;;;;;8.40;7.50;;;;;;;17.55;57.40;155872.72;4986018;28;20543;-79
2023/06/15 04:30:07;;;;;;;8.00;7.30;;;;;;;17.70;58.09;155910.50;4978004;28;20441;-79
2023/06/15 04:32:35;;;;;;;7.77;7.13;;;;;;;17.95;57.23;155975.56;4988856;28;20453;-78
2023/06/15 04:35:05;;;;;;;7.73;7.07;;;;;;;18.17;55.96;156031.56;4987725;28;20716;-78
2023/06/15 04:37:32;;;;;;;7.83;7.10;;;;;;;18.22;55.65;156045.91;4971632;28;21160;-78
2023/06/15 04:40:00;;;;;;;7.93;7.23;;;;;;;18.24;54.84;156051.09;4975613;28;20861;-79
2023/06/15 04:42:37;;;;;;;7.80;7.10;;;;;;;18.23;55.82;156048.53;4970289;28;20483;-79
2023/06/15 04:45:08;;;;;;;7.97;6.93;;;;;;;18.34;56.29;156074.56;5003402;28;20473;-78
2023/06/15 04:47:34;;;;;;;7.73;7.03;;;;;;;18.44;54.53;156100.59;4986872;28;20465;-79
2023/06/15 04:50:03;;;;;;;8.10;7.30;;;;;;;18.58;55.64;156137.13;5004077;28;20692;-79
2023/06/15 04:52:31;;;;;;;8.90;7.67;;;;;;;18.75;54.66;156181.41;4989921;28;20458;-79
2023/06/15 04:54:58;;;;;;;8.00;6.80;;;;;;;18.96;54.62;156236.13;5005689;28;20547;-79
2023/06/15 04:57:24;;;;;;;10.10;7.30;;;;;;;19.08;53.90;156266.13;4979326;28;20759;-79
2023/06/15 04:59:52;;;;;;;7.03;6.43;;;;;;;19.28;53.47;156319.53;4980569;28;20462;-79
2023/06/15 05:02:18;;;;;;;7.87;7.17;;;;;;;19.52;53.93;156379.53;4990263;28;20453;-79
2023/06/15 05:04:46;;;;;;;7.70;7.00;;;;;;;19.73;52.62;156434.28;4984659;28;20456;-79
2023/06/15 05:07:13;;;;;;;7.27;6.67;;;;;;;19.90;51.09;156478.66;5002970;28;20473;-79
2023/06/15 05:09:48;;;;;;;11.53;7.57;;;;;;;20.01;51.93;156507.34;4978734;28;21143;-79
2023/06/15 05:12:22;;;;;;;7.90;7.10;;;;;;;19.96;52.10;156494.31;4986540;28;20487;-79
2023/06/15 05:14:49;;;;;;;7.53;6.93;;;;;;;20.01;51.69;156508.59;4993999;28;20965;-79
2023/06/15 05:17:15;;;;;;;7.10;6.50;;;;;;;20.08;52.04;156525.59;5003343;28;20481;-79
2023/06/15 05:19:42;;;;;;;9.40;7.43;;;;;;;20.13;51.58;156537.31;4985619;28;20715;-79
2023/06/15 05:22:09;;;;;;;7.80;7.10;;;;;;;20.27;51.58;156575.19;4969722;28;20511;-80
2023/06/15 05:24:38;;;;;;;8.87;8.07;;;;;;;20.36;51.69;156598.66;4985744;28;20489;-79
2023/06/15 05:27:08;;;;;;;8.37;7.57;;;;;;;20.54;51.19;156644.34;5002122;28;20495;-79
2023/06/15 05:29:36;;;;;;;9.07;8.27;;;;;;;20.63;51.24;156667.78;5001917;28;20460;-79
2023/06/15 05:32:08;;;;;;;8.50;7.80;;;;;;;20.77;51.07;156703.03;4987686;28;20844;-79
2023/06/15 05:34:36;;;;;;;7.70;7.07;;;;;;;20.91;50.75;156740.88;4986590;28;20453;-79
2023/06/15 05:37:18;;;;;;;8.83;8.00;;;;;;;21.00;50.78;156764.34;4995292;28;20464;-79
2023/06/15 05:39:46;;;;;;;8.63;7.93;;;;;;;21.24;50.44;156825.72;5003439;28;20449;-79
2023/06/15 05:42:14;;;;;;;9.00;8.20;;;;;;;21.43;50.46;156875.34;4993610;28;20952;-79
2023/06/15 05:44:44;;;;;;;8.97;8.07;;;;;;;21.42;48.68;156872.72;4974664;28;20606;-79
2023/06/15 05:47:13;;;;;;;9.07;8.17;;;;;;;21.33;49.31;156849.25;4995035;28;20583;-79
2023/06/15 05:49:39;;;;;;;9.20;8.40;;;;;;;21.42;49.17;156872.72;5001625;28;20644;-79
2023/06/15 05:52:08;;;;;;;8.30;7.60;;;;;;;21.42;49.18;156871.44;4992186;28;20461;-79
2023/06/15 05:54:34;;;;;;;9.13;8.33;;;;;;;21.34;47.86;156851.81;5001176;28;20480;-79
2023/06/15 05:57:03;;;;;;;8.80;8.10;;;;;;;21.33;48.40;156849.25;4986539;28;20467;-79
2023/06/15 05:59:39;;;;;;;8.67;7.93;;;;;;;21.46;47.32;156881.88;4983273;28;20532;-79
2023/06/15 06:02:11;;;;;;;8.00;7.27;;;;;;;21.55;47.76;156905.38;4997998;28;20453;-79
2023/06/15 06:04:44;;;;;;;8.90;8.00;;;;;;;21.88;46.70;156991.56;4966687;28;20453;-78
2023/06/15 06:07:26;;;;;;;8.73;7.93;;;;;;;21.82;47.21;156975.84;4999348;28;21014;-79
2023/06/15 06:09:53;;;;;;;9.83;8.47;;;;;;;21.98;47.05;157017.69;4991456;28;20554;-79
2023/06/15 06:12:20;;;;;;;10.70;8.40;;;;;;;21.90;47.25;156995.47;4986150;28;20575;-78
2023/06/15 06:14:57;;;;;;;9.30;8.30;;;;;;;21.96;46.32;157012.47;4983608;28;21010;-78
2023/06/15 06:17:33;;;;;;;12.37;9.00;;;;;;;21.88;47.37;156990.25;5001838;28;20465;-79
2023/06/15 06:20:02;;;;;;;9.70;8.83;;;;;;;22.16;46.48;157063.41;5001137;28;20449;-78
2023/06/15 06:22:32;;;;;;;11.90;7.87;;;;;;;21.82;46.33;156975.84;5000258;28;20491;-79
2023/06/15 06:24:58;;;;;;;15.63;8.67;;;;;;;21.89;46.66;156992.88;4977752;28;20531;-79
2023/06/15 06:27:28;;;;;;;10.07;8.37;;;;;;;21.98;46.08;157016.38;4985624;28;20485;-79
2023/06/15 06:29:55;;;;;;;9.30;8.40;;;;;;;21.93;46.40;157003.31;5001193;28;20459;-79
2023/06/15 06:32:23;;;;;;;9.10;8.20;;;;;;;22.06;46.39;157038.56;5002138;28;21045;-79
2023/06/15 06:34:50;;;;;;;10.50;9.60;;;;;;;22.05;45.72;157036.00;5001997;28;20484;-79
2023/06/15 06:37:17;;;;;;;10.50;9.60;;;;;;;21.87;46.91;156988.94;5003492;28;20463;-80
2023/06/15 06:39:43;;;;;;;8.00;7.30;;;;;;;22.03;47.39;157029.47;5001030;28;20503;-80
2023/06/15 06:42:10;;;;;;;9.57;8.77;;;;;;;22.37;46.52;157119.53;5001843;28;20800;-80
2023/06/15 06:44:38;;;;;;;12.40;9.07;;;;;;;22.55;45.60;157163.97;5000856;28;20445;-80
2023/06/15 06:47:05;;;;;;;9.20;8.30;;;;;;;22.56;45.34;157167.88;5002318;28;20578;-80
2023/06/15 06:49:33;;;;;;;8.60;7.73;;;;;;;22.48;45.67;157145.69;4992576;28;20445;-80
2023/06/15 06:52:00;;;;;;;8.33;7.57;;;;;;;22.58;45.21;157173.13;5002336;28;20453;-80
2023/06/15 06:54:26;;;;;;;9.00;8.20;;;;;;;22.73;45.48;157212.34;5002807;28;20542;-81
2023/06/15 06:56:53;;;;;;;9.10;8.20;;;;;;;22.90;45.25;157256.75;4999747;28;20519;-80
2023/06/15 06:59:19;;;;;;;8.07;7.40;;;;;;;23.01;44.82;157285.50;5002632;28;20445;-80
2023/06/15 07:01:47;;;;;;;9.03;8.20;;;;;;;22.92;44.80;157262.03;5000236;28;20835;-81
2023/06/15 07:04:14;;;;;;;9.30;8.50;;;;;;;23.08;44.40;157301.22;5002252;28;20852;-80
2023/06/15 07:06:42;;;;;;;9.30;8.50;;;;;;;23.04;44.05;157293.34;4985944;28;20999;-80
2023/06/15 07:09:08;;;;;;;8.27;7.40;;;;;;;23.06;44.24;157296.00;5002852;28;20452;-81
2023/06/15 07:11:35;;;;;;;8.80;8.10;;;;;;;23.25;44.30;157345.63;5004133;28;20837;-81
2023/06/15 07:14:03;;;;;;;9.40;8.40;;;;;;;23.44;43.76;157395.34;4986913;28;20543;-81
2023/06/15 07:16:30;;;;;;;11.03;8.10;;;;;;;23.54;43.65;157421.47;5004051;28;21045;-80
2023/06/15 07:18:56;;;;;;;8.30;7.50;;;;;;;23.77;43.55;157480.31;5004482;28;20449;-81
2023/06/15 07:21:23;;;;;;;8.90;8.03;;;;;;;23.92;42.91;157519.53;5003624;28;20468;-81
2023/06/15 07:23:51;;;;;;;8.13;7.53;;;;;;;23.93;42.77;157523.47;5005870;28;20987;-81
2023/06/15 07:26:18;;;;;;;9.20;8.40;;;;;;;24.13;42.52;157575.81;5004221;28;20473;-80
2023/06/15 07:28:45;;;;;;;8.90;7.60;;;;;;;24.18;42.70;157587.56;5005430;28;20455;-80
2023/06/15 07:31:11;;;;;;;8.60;7.80;;;;;;;24.00;42.74;157541.78;5003895;28;20462;-81
2023/06/15 07:33:38;;;;;;;8.20;7.50;;;;;;;24.07;43.07;157560.06;5003956;28;20587;-80
2023/06/15 07:36:04;;;;;;;8.37;7.53;;;;;;;24.21;41.97;157596.75;5004863;28;20453;-81
2023/06/15 07:38:34;;;;;;;8.07;7.40;;;;;;;24.41;42.17;157646.47;5005886;28;20488;-81
2023/06/15 07:41:07;;;;;;;8.37;7.73;;;;;;;24.50;41.73;157669.97;5004394;28;20472;-80
2023/06/15 07:43:49;;;;;;;8.63;7.87;;;;;;;24.27;42.21;157609.81;5003197;28;20452;-79
2023/06/15 07:47:10;;;;;;;7.53;6.90;;;;;;;24.32;42.34;157622.88;4994130;28;20507;-80
2023/06/15 07:49:37;;;;;;;9.23;8.43;;;;;;;24.52;41.60;157675.19;4942052;28;20473;-79
2023/06/15 07:52:04;;;;;;;8.90;8.10;;;;;;;24.69;40.98;157721.00;4947606;28;20462;-80
2023/06/15 07:54:30;;;;;;;8.10;7.40;;;;;;;24.74;41.72;157732.75;4986591;28;20817;-80
2023/06/15 07:56:58;;;;;;;8.23;7.20;;;;;;;24.93;41.71;157781.22;5005737;28;20471;-80
2023/06/15 07:59:25;;;;;;;8.70;8.00;;;;;;;25.09;40.37;157824.41;4987065;28;20448;-80
2023/06/15 08:01:51;;;;;;;7.70;7.10;;;;;;;24.92;40.76;157778.59;5000295;28;20507;-80
2023/06/15 08:04:18;;;;;;;7.33;6.80;;;;;;;25.14;40.78;157837.50;4997340;28;20457;-80
2023/06/15 08:06:45;;;;;;;7.67;7.00;;;;;;;25.10;40.09;157825.75;4999177;28;20476;-80
2023/06/15 08:09:12;;;;;;;7.87;7.03;;;;;;;24.92;40.56;157779.91;5003996;28;20480;-81
2023/06/15 08:11:38;;;;;;;8.10;7.50;;;;;;;24.86;40.55;157762.94;5002726;28;20451;-80
2023/06/15 08:14:06;;;;;;;8.13;7.33;;;;;;;25.06;40.89;157816.56;4976851;28;20959;-80
2023/06/15 08:16:33;;;;;;;7.90;7.20;;;;;;;25.27;40.28;157871.53;5003507;28;20485;-81
2023/06/15 08:18:59;;;;;;;8.30;7.70;;;;;;;25.14;40.59;157837.50;5004856;28;20468;-81
2023/06/15 08:21:26;;;;;;;8.03;7.40;;;;;;;25.31;40.30;157881.97;5004134;28;20465;-81
2023/06/15 08:23:52;;;;;;;7.70;7.10;;;;;;;25.55;39.95;157942.25;5006380;28;20463;-81
2023/06/15 08:26:20;;;;;;;9.13;8.43;;;;;;;25.14;40.05;157837.50;5005089;28;20472;-81
2023/06/15 08:28:46;;;;;;;10.83;8.30;;;;;;;25.21;39.88;157854.47;4985472;28;21077;-81
2023/06/15 08:31:14;;;;;;;7.87;7.17;;;;;;;24.93;40.84;157782.53;5000319;28;20626;-80
2023/06/15 08:33:41;;;;;;;8.40;7.60;;;;;;;24.56;41.35;157685.69;5002973;28;20491;-81
2023/06/15 08:36:07;;;;;;;7.53;6.83;;;;;;;24.81;41.03;157751.13;5002665;28;20546;-81
2023/06/15 08:38:34;;;;;;;9.50;7.60;;;;;;;25.19;39.88;157849.25;5002568;28;20834;-81
2023/06/15 08:41:01;;;;;;;8.00;7.40;;;;;;;24.97;40.17;157793.00;5002077;28;20612;-81
2023/06/15 08:43:30;;;;;;;8.47;7.77;;;;;;;24.92;40.98;157778.59;4988900;28;20472;-81
2023/06/15 08:45:57;;;;;;;7.20;6.60;;;;;;;25.28;40.54;157874.09;5003947;28;20456;-81
2023/06/15 08:48:26;;;;;;;7.70;7.00;;;;;;;25.80;40.24;158007.69;5004968;28;20488;-81
2023/06/15 08:50:53;;;;;;;8.10;7.30;;;;;;;25.65;38.08;157968.44;5006244;28;20935;-81
2023/06/15 08:53:22;;;;;;;7.83;7.07;;;;;;;24.93;39.61;157782.53;5005431;28;20491;-78
2023/06/15 08:55:49;;;;;;;8.43;7.60;;;;;;;24.53;40.44;157679.16;5004767;28;20527;-80
2023/06/15 08:58:16;;;;;;;7.63;6.93;;;;;;;24.51;40.91;157672.59;5004002;28;22530;-80
2023/06/15 09:00:43;;;;;;;8.00;7.30;;;;;;;24.31;41.12;157620.25;5003895;28;20827;-80
2023/06/15 09:03:10;;;;;;;8.23;7.00;;;;;;;24.65;40.75;157709.19;5003021;28;20461;-80
2023/06/15 09:05:38;;;;;;;8.00;7.30;;;;;;;24.79;40.72;157747.22;4988676;28;20445;-80
2023/06/15 09:08:05;;;;;;;7.90;7.20;;;;;;;24.94;40.13;157785.13;4988323;28;20484;-80
2023/06/15 09:10:36;;;;;;;7.87;7.10;;;;;;;24.36;40.52;157634.66;5005284;28;20456;-80
2023/06/15 09:13:03;;;;;;;7.00;6.50;;;;;;;24.15;41.15;157581.03;5005686;28;20461;-79
2023/06/15 09:15:31;;;;;;;7.00;6.40;;;;;;;24.19;40.88;157590.22;5004515;28;20464;-80
2023/06/15 09:17:59;;;;;;;7.40;6.77;;;;;;;23.94;41.42;157524.75;5002879;28;20984;-80
2023/06/15 09:20:27;;;;;;;7.80;7.20;;;;;;;24.01;42.37;157543.09;5004114;28;20527;-80
2023/06/15 09:22:59;;;;;;;9.60;7.67;;;;;;;24.56;40.59;157685.69;5003924;28;20460;-80
2023/06/15 09:25:26;;;;;;;7.97;7.27;;;;;;;24.95;39.90;157787.75;5005366;28;20864;-80
2023/06/15 09:27:57;;;;;;;7.90;7.30;;;;;;;25.14;39.32;157836.19;5003741;28;20837;-80
2023/06/15 09:30:30;;;;;;;8.30;7.50;;;;;;;25.02;39.02;157804.78;5003783;28;21029;-80
2023/06/15 09:32:57;;;;;;;8.00;7.17;;;;;;;24.94;39.25;157785.13;5004960;28;20464;-80
2023/06/15 09:35:24;;;;;;;7.93;7.20;;;;;;;24.97;39.81;157793.00;5003731;28;20484;-80
2023/06/15 09:37:52;;;;;;;7.40;6.80;;;;;;;25.29;38.47;157876.75;4988065;28;20507;-80
2023/06/15 09:40:20;;;;;;;6.50;5.90;;;;;;;24.90;37.72;157773.38;5004677;28;20453;-80
2023/06/15 09:42:51;;;;;;;6.97;6.37;;;;;;;25.15;37.89;157838.81;5006950;28;20461;-80
2023/06/15 09:45:17;;;;;;;6.90;6.30;;;;;;;25.34;36.73;157889.81;5005351;28;20457;-80
2023/06/15 09:47:44;;;;;;;8.17;6.70;;;;;;;25.77;35.91;158001.13;5004247;28;20492;-80
2023/06/15 09:50:11;;;;;;;7.33;6.70;;;;;;;25.85;36.00;158020.78;4995159;28;20449;-80
2023/06/15 09:52:43;;;;;;;7.67;6.97;;;;;;;25.70;36.80;157981.50;4993848;28;21247;-80
2023/06/15 09:55:10;;;;;;;7.73;7.13;;;;;;;25.55;37.42;157942.25;5004447;28;20491;-80
2023/06/15 09:57:38;;;;;;;7.57;6.97;;;;;;;25.29;38.01;157875.44;5002693;28;20449;-81
2023/06/15 10:00:08;;;;;;;8.53;7.73;;;;;;;25.11;38.45;157828.31;5004612;28;20846;-81
2023/06/15 10:02:39;;;;;;;7.53;6.93;;;;;;;25.53;38.01;157936.97;5003140;28;20475;-81
2023/06/15 10:05:14;;;;;;;7.13;6.63;;;;;;;26.05;36.96;158071.84;5004313;28;20452;-81
2023/06/15 10:07:46;;;;;;;7.50;6.90;;;;;;;25.49;37.32;157927.84;5003966;28;20870;-81
2023/06/15 10:10:13;;;;;;;7.83;7.23;;;;;;;24.79;38.60;157747.22;4994241;28;20884;-80
2023/06/15 10:12:43;;;;;;;7.57;6.93;;;;;;;24.48;39.00;157664.75;5002654;28;20800;-81
2023/06/15 10:15:12;;;;;;;7.00;6.50;;;;;;;24.15;39.53;157581.03;5004537;28;20918;-81
2023/06/15 10:17:40;;;;;;;7.87;7.10;;;;;;;23.91;38.96;157518.22;5003303;28;20450;-81
2023/06/15 10:20:10;;;;;;;7.30;6.60;;;;;;;23.81;39.79;157490.75;5001462;28;20935;-81
2023/06/15 10:22:46;;;;;;;7.47;6.87;;;;;;;23.91;39.38;157516.91;5004748;28;20479;-81
2023/06/15 10:25:13;;;;;;;7.10;6.60;;;;;;;24.01;39.02;157544.34;5002133;28;20459;-81
2023/06/15 10:27:40;;;;;;;7.57;6.70;;;;;;;24.07;37.90;157558.75;4987656;28;21156;-80
2023/06/15 10:30:13;;;;;;;6.37;5.87;;;;;;;24.15;38.48;157579.72;5002953;28;20596;-80
2023/06/15 10:32:43;;;;;;;6.93;6.33;;;;;;;24.58;38.42;157692.22;5002769;28;20543;-80
2023/06/15 10:35:13;;;;;;;6.83;6.17;;;;;;;24.99;37.10;157796.94;5001543;28;20452;-80
2023/06/15 10:37:46;;;;;;;6.83;6.13;;;;;;;24.94;37.22;157783.84;4987278;28;20955;-80
2023/06/15 10:40:18;;;;;;;7.03;6.33;;;;;;;24.80;37.17;157748.53;5003129;28;20825;-80
2023/06/15 10:42:48;;;;;;;7.03;6.43;;;;;;;24.83;36.90;157757.66;5003715;28;21034;-80
2023/06/15 10:45:31;;;;;;;6.57;6.00;;;;;;;24.56;36.67;157687.00;4970069;28;20832;-80
2023/06/15 10:47:59;;;;;;;6.53;5.90;;;;;;;24.40;35.59;157643.81;5005272;28;20484;-80
2023/06/15 10:50:25;;;;;;;5.80;5.30;;;;;;;24.45;35.86;157658.22;4994479;28;20551;-80
2023/06/15 10:52:52;;;;;;;5.80;5.30;;;;;;;24.43;33.15;157653.00;5004332;28;20453;-80
2023/06/15 10:55:22;;;;;;;6.40;5.90;;;;;;;24.63;35.57;157703.97;5006710;28;20475;-79
2023/06/15 10:57:48;;;;;;;6.40;5.80;;;;;;;24.70;35.28;157723.59;5007802;28;20954;-81
2023/06/15 11:00:24;;;;;;;5.80;5.30;;;;;;;24.65;34.71;157710.50;5008506;28;20452;-79
2023/06/15 11:02:59;;;;;;;5.73;5.30;;;;;;;24.69;35.82;157719.69;5006331;28;20526;-81
2023/06/15 11:05:26;;;;;;;6.37;5.77;;;;;;;25.07;35.34;157819.16;5007180;28;20463;-79
2023/06/15 11:07:54;;;;;;;6.90;5.37;;;;;;;24.81;34.53;157752.44;5008247;28;20472;-79
2023/06/15 11:10:28;;;;;;;6.20;5.70;;;;;;;24.53;36.97;157677.81;5006068;28;20457;-79
2023/06/15 11:13:01;;;;;;;6.43;5.93;;;;;;;24.25;36.90;157605.91;5007426;28;20851;-79
2023/06/15 11:15:32;;;;;;;6.27;5.73;;;;;;;24.13;37.49;157575.81;5006618;28;20468;-79
2023/06/15 11:18:03;;;;;;;6.37;5.87;;;;;;;24.08;36.90;157561.38;5006976;28;20571;-79
2023/06/15 11:21:02;;;;;;;6.50;6.00;;;;;;;24.23;37.42;157601.97;5006627;28;20451;-79
2023/06/15 11:23:32;;;;;;;5.90;5.50;;;;;;;24.27;37.75;157611.13;5006783;28;20563;-79
2023/06/15 11:26:01;;;;;;;6.23;5.73;;;;;;;24.28;37.81;157612.44;5006514;28;20538;-79
2023/06/15 11:28:31;;;;;;;6.90;6.20;;;;;;;24.39;37.21;157641.19;5005676;28;20488;-79
2023/06/15 11:30:58;;;;;;;6.73;6.13;;;;;;;24.35;37.69;157630.75;5007464;28;20475;-79